sensor_id;sensor_type;location;lat;lon;timestamp;P1;durP1;ratioP1;P2;durP2;ratioP2
16272;SDS011;8244;50.044;9.006;2023-06-22T00:04:57;9.95;;;7.05;;
16272;SDS011;8244;50.044;9.006;2023-06-22T00:09:58;10.55;;;7.15;;
16272;SDS011;8244;50.044;9.006;2023-06-22T00:15:02;8.68;;;6.43;;
16272;SDS011;8244;50.044;9.006;2023-06-22T00:20:04;9.85;;;6.40;;
16272;SDS011;8244;50.044;9.006;2023-06-22T00:25:07;8.75;;;6.30;;
16272;SDS011;8244;50.044;9.006;2023-06-22T00:30:11;9.25;;;6.28;;
16272;SDS011;8244;50.044;9.006;2023-06-22T00:35:14;11.68;;;6.32;;
16272;SDS011;8244;50.044;9.006;2023-06-22T00:40:15;9.02;;;6.30;;
16272;SDS011;8244;50.044;9.006;2023-06-22T00:45:23;10.43;;;6.05;;
16272;SDS011;8244;50.044;9.006;2023-06-22T00:50:25;9.13;;;6.55;;
16272;SDS011;8244;50.044;9.006;2023-06-22T00:55:29;8.80;;;6.97;;
16272;SDS011;8244;50.044;9.006;2023-06-22T01:00:32;13.80;;;8.57;;
16272;SDS011;8244;50.044;9.006;2023-06-22T01:05:34;10.27;;;6.88;;
16272;SDS011;8244;50.044;9.006;2023-06-22T01:10:37;13.65;;;7.63;;
16272;SDS011;8244;50.044;9.006;2023-06-22T01:15:44;10.95;;;7.30;;
16272;SDS011;8244;50.044;9.006;2023-06-22T01:20:50;9.50;;;7.05;;
16272;SDS011;8244;50.044;9.006;2023-06-22T01:25:53;14.57;;;8.38;;
16272;SDS011;8244;50.044;9.006;2023-06-22T01:31:04;13.13;;;8.20;;
16272;SDS011;8244;50.044;9.006;2023-06-22T01:36:09;11.50;;;8.23;;
16272;SDS011;8244;50.044;9.006;2023-06-22T01:41:11;15.55;;;8.10;;
16272;SDS011;8244;50.044;9.006;2023-06-22T01:46:15;14.43;;;8.18;;
16272;SDS011;8244;50.044;9.006;2023-06-22T01:51:19;16.08;;;9.20;;
16272;SDS011;8244;50.044;9.006;2023-06-22T01:56:21;12.10;;;9.25;;
16272;SDS011;8244;50.044;9.006;2023-06-22T02:01:26;13.63;;;9.23;;
16272;SDS011;8244;50.044;9.006;2023-06-22T02:06:33;12.52;;;9.38;;
16272;SDS011;8244;50.044;9.006;2023-06-22T02:11:38;13.63;;;8.45;;
16272;SDS011;8244;50.044;9.006;2023-06-22T02:16:47;11.85;;;8.73;;
16272;SDS011;8244;50.044;9.006;2023-06-22T02:21:49;11.90;;;8.77;;
16272;SDS011;8244;50.044;9.006;2023-06-22T02:26:50;12.85;;;9.05;;
16272;SDS011;8244;50.044;9.006;2023-06-22T02:31:54;12.63;;;8.25;;
16272;SDS011;8244;50.044;9.006;2023-06-22T02:36:55;11.43;;;8.15;;
16272;SDS011;8244;50.044;9.006;2023-06-22T02:42:00;12.07;;;8.43;;
16272;SDS011;8244;50.044;9.006;2023-06-22T02:47:03;11.45;;;8.25;;
16272;SDS011;8244;50.044;9.006;2023-06-22T02:52:06;11.25;;;9.10;;
16272;SDS011;8244;50.044;9.006;2023-06-22T02:57:07;13.75;;;8.73;;
16272;SDS011;8244;50.044;9.006;2023-06-22T03:02:14;10.38;;;7.82;;
16272;SDS011;8244;50.044;9.006;2023-06-22T03:07:16;10.50;;;7.85;;
16272;SDS011;8244;50.044;9.006;2023-06-22T03:12:18;13.25;;;8.20;;
16272;SDS011;8244;50.044;9.006;2023-06-22T03:17:21;9.93;;;8.00;;
16272;SDS011;8244;50.044;9.006;2023-06-22T03:22:23;11.77;;;9.02;;
16272;SDS011;8244;50.044;9.006;2023-06-22T03:27:24;12.02;;;9.38;;
16272;SDS011;8244;50.044;9.006;2023-06-22T03:32:27;12.07;;;8.25;;
16272;SDS011;8244;50.044;9.006;2023-06-22T03:37:29;13.43;;;8.93;;
16272;SDS011;8244;50.044;9.006;2023-06-22T03:42:31;10.60;;;8.25;;
16272;SDS011;8244;50.044;9.006;2023-06-22T03:47:36;11.13;;;8.27;;
16272;SDS011;8244;50.044;9.006;2023-06-22T03:52:38;11.20;;;7.90;;
16272;SDS011;8244;50.044;9.006;2023-06-22T03:57:40;11.00;;;8.65;;
16272;SDS011;8244;50.044;9.006;2023-06-22T04:02:43;12.02;;;8.48;;
16272;SDS011;8244;50.044;9.006;2023-06-22T04:07:45;10.18;;;8.23;;
16272;SDS011;8244;50.044;9.006;2023-06-22T04:12:47;11.63;;;9.55;;
16272;SDS011;8244;50.044;9.006;2023-06-22T04:17:50;10.30;;;7.75;;
16272;SDS011;8244;50.044;9.006;2023-06-22T04:22:52;13.85;;;9.98;;
16272;SDS011;8244;50.044;9.006;2023-06-22T04:27:54;11.90;;;9.27;;
16272;SDS011;8244;50.044;9.006;2023-06-22T04:32:57;12.43;;;8.77;;
16272;SDS011;8244;50.044;9.006;2023-06-22T04:38:00;11.50;;;9.02;;
16272;SDS011;8244;50.044;9.006;2023-06-22T04:43:03;13.75;;;9.05;;
16272;SDS011;8244;50.044;9.006;2023-06-22T04:48:07;11.20;;;8.23;;
16272;SDS011;8244;50.044;9.006;2023-06-22T04:53:09;12.27;;;7.88;;
16272;SDS011;8244;50.044;9.006;2023-06-22T04:58:12;11.18;;;8.82;;
16272;SDS011;8244;50.044;9.006;2023-06-22T05:03:15;11.88;;;9.02;;
16272;SDS011;8244;50.044;9.006;2023-06-22T05:08:18;12.32;;;8.63;;
16272;SDS011;8244;50.044;9.006;2023-06-22T05:13:20;11.57;;;7.75;;
16272;SDS011;8244;50.044;9.006;2023-06-22T05:18:27;12.32;;;8.80;;
16272;SDS011;8244;50.044;9.006;2023-06-22T05:23:30;12.00;;;8.38;;
16272;SDS011;8244;50.044;9.006;2023-06-22T05:28:32;12.88;;;8.70;;
16272;SDS011;8244;50.044;9.006;2023-06-22T05:33:35;10.73;;;6.53;;
16272;SDS011;8244;50.044;9.006;2023-06-22T05:38:37;10.65;;;7.10;;
16272;SDS011;8244;50.044;9.006;2023-06-22T05:43:39;12.13;;;7.00;;
16272;SDS011;8244;50.044;9.006;2023-06-22T05:48:42;11.55;;;6.93;;
16272;SDS011;8244;50.044;9.006;2023-06-22T05:53:43;9.80;;;6.05;;
16272;SDS011;8244;50.044;9.006;2023-06-22T05:58:49;9.63;;;6.30;;
16272;SDS011;8244;50.044;9.006;2023-06-22T06:03:52;8.88;;;6.10;;
16272;SDS011;8244;50.044;9.006;2023-06-22T06:08:54;8.05;;;5.90;;
16272;SDS011;8244;50.044;9.006;2023-06-22T06:13:59;9.43;;;6.40;;
16272;SDS011;8244;50.044;9.006;2023-06-22T06:19:03;8.70;;;5.85;;
16272;SDS011;8244;50.044;9.006;2023-06-22T06:24:04;8.05;;;5.57;;
16272;SDS011;8244;50.044;9.006;2023-06-22T06:29:06;8.70;;;5.80;;
16272;SDS011;8244;50.044;9.006;2023-06-22T06:34:10;7.07;;;5.38;;
16272;SDS011;8244;50.044;9.006;2023-06-22T06:39:11;7.80;;;5.35;;
16272;SDS011;8244;50.044;9.006;2023-06-22T06:44:13;6.90;;;5.40;;
16272;SDS011;8244;50.044;9.006;2023-06-22T06:49:16;8.50;;;5.60;;
16272;SDS011;8244;50.044;9.006;2023-06-22T06:54:18;12.85;;;6.05;;
16272;SDS011;8244;50.044;9.006;2023-06-22T06:59:20;8.15;;;5.88;;
16272;SDS011;8244;50.044;9.006;2023-06-22T07:04:23;7.28;;;5.63;;
16272;SDS011;8244;50.044;9.006;2023-06-22T07:09:25;8.88;;;5.95;;
16272;SDS011;8244;50.044;9.006;2023-06-22T07:14:27;8.02;;;5.75;;
16272;SDS011;8244;50.044;9.006;2023-06-22T07:19:30;7.25;;;5.68;;
16272;SDS011;8244;50.044;9.006;2023-06-22T07:24:33;10.82;;;6.30;;
16272;SDS011;8244;50.044;9.006;2023-06-22T07:29:35;7.53;;;5.80;;
16272;SDS011;8244;50.044;9.006;2023-06-22T07:34:39;7.07;;;5.43;;
16272;SDS011;8244;50.044;9.006;2023-06-22T07:39:41;7.10;;;5.22;;
16272;SDS011;8244;50.044;9.006;2023-06-22T07:44:43;7.75;;;5.55;;
16272;SDS011;8244;50.044;9.006;2023-06-22T07:49:46;8.57;;;5.75;;
16272;SDS011;8244;50.044;9.006;2023-06-22T07:54:48;7.85;;;5.85;;
16272;SDS011;8244;50.044;9.006;2023-06-22T07:59:49;7.90;;;5.85;;
16272;SDS011;8244;50.044;9.006;2023-06-22T08:04:53;9.40;;;6.22;;
16272;SDS011;8244;50.044;9.006;2023-06-22T08:09:54;7.68;;;5.75;;
16272;SDS011;8244;50.044;9.006;2023-06-22T08:14:56;8.75;;;5.80;;
16272;SDS011;8244;50.044;9.006;2023-06-22T08:19:59;8.45;;;5.78;;
16272;SDS011;8244;50.044;9.006;2023-06-22T08:25:01;9.98;;;5.93;;
16272;SDS011;8244;50.044;9.006;2023-06-22T08:30:04;8.07;;;5.47;;
16272;SDS011;8244;50.044;9.006;2023-06-22T08:35:09;7.18;;;5.00;;
16272;SDS011;8244;50.044;9.006;2023-06-22T08:40:11;7.13;;;5.60;;
16272;SDS011;8244;50.044;9.006;2023-06-22T08:45:13;7.22;;;5.35;;
16272;SDS011;8244;50.044;9.006;2023-06-22T08:50:17;9.07;;;5.43;;
16272;SDS011;8244;50.044;9.006;2023-06-22T08:55:19;8.98;;;5.60;;
16272;SDS011;8244;50.044;9.006;2023-06-22T09:00:20;8.75;;;5.75;;
16272;SDS011;8244;50.044;9.006;2023-06-22T09:05:23;6.80;;;5.28;;
16272;SDS011;8244;50.044;9.006;2023-06-22T09:10:26;8.40;;;5.30;;
16272;SDS011;8244;50.044;9.006;2023-06-22T09:15:28;8.35;;;5.50;;
16272;SDS011;8244;50.044;9.006;2023-06-22T09:20:31;9.02;;;5.25;;
16272;SDS011;8244;50.044;9.006;2023-06-22T09:25:33;6.25;;;4.88;;
16272;SDS011;8244;50.044;9.006;2023-06-22T09:30:34;7.75;;;5.38;;
16272;SDS011;8244;50.044;9.006;2023-06-22T09:35:37;10.82;;;5.60;;
16272;SDS011;8244;50.044;9.006;2023-06-22T09:40:39;6.05;;;4.80;;
16272;SDS011;8244;50.044;9.006;2023-06-22T09:45:41;8.48;;;5.50;;
16272;SDS011;8244;50.044;9.006;2023-06-22T09:50:44;7.20;;;5.20;;
16272;SDS011;8244;50.044;9.006;2023-06-22T09:55:46;7.82;;;5.00;;
16272;SDS011;8244;50.044;9.006;2023-06-22T10:00:48;7.25;;;5.55;;
16272;SDS011;8244;50.044;9.006;2023-06-22T10:05:57;8.18;;;5.63;;
16272;SDS011;8244;50.044;9.006;2023-06-22T10:11:01;7.45;;;5.15;;
16272;SDS011;8244;50.044;9.006;2023-06-22T10:16:03;9.15;;;5.65;;
16272;SDS011;8244;50.044;9.006;2023-06-22T10:21:06;12.27;;;5.22;;
16272;SDS011;8244;50.044;9.006;2023-06-22T10:26:08;7.70;;;5.68;;
16272;SDS011;8244;50.044;9.006;2023-06-22T10:31:09;8.48;;;5.28;;
16272;SDS011;8244;50.044;9.006;2023-06-22T10:36:12;9.32;;;5.50;;
16272;SDS011;8244;50.044;9.006;2023-06-22T10:41:14;8.18;;;5.30;;
16272;SDS011;8244;50.044;9.006;2023-06-22T10:46:16;10.40;;;5.18;;
16272;SDS011;8244;50.044;9.006;2023-06-22T10:51:19;8.43;;;5.18;;
16272;SDS011;8244;50.044;9.006;2023-06-22T10:56:21;10.40;;;5.70;;
16272;SDS011;8244;50.044;9.006;2023-06-22T11:01:23;7.75;;;5.88;;
16272;SDS011;8244;50.044;9.006;2023-06-22T11:06:28;8.30;;;5.20;;
16272;SDS011;8244;50.044;9.006;2023-06-22T11:11:30;8.77;;;5.53;;
16272;SDS011;8244;50.044;9.006;2023-06-22T11:16:31;8.05;;;5.43;;
16272;SDS011;8244;50.044;9.006;2023-06-22T11:21:36;7.80;;;5.10;;
16272;SDS011;8244;50.044;9.006;2023-06-22T11:26:37;9.73;;;6.00;;
16272;SDS011;8244;50.044;9.006;2023-06-22T11:31:39;10.30;;;5.30;;
16272;SDS011;8244;50.044;9.006;2023-06-22T11:36:44;8.32;;;5.22;;
16272;SDS011;8244;50.044;9.006;2023-06-22T11:41:47;8.10;;;5.47;;
16272;SDS011;8244;50.044;9.006;2023-06-22T11:46:48;9.23;;;5.50;;
16272;SDS011;8244;50.044;9.006;2023-06-22T11:51:51;9.30;;;5.60;;
16272;SDS011;8244;50.044;9.006;2023-06-22T11:56:54;8.55;;;5.68;;
16272;SDS011;8244;50.044;9.006;2023-06-22T12:01:56;10.20;;;5.93;;
16272;SDS011;8244;50.044;9.006;2023-06-22T12:07:00;9.10;;;5.60;;
16272;SDS011;8244;50.044;9.006;2023-06-22T12:12:02;12.18;;;5.80;;
16272;SDS011;8244;50.044;9.006;2023-06-22T12:17:05;10.57;;;5.70;;
16272;SDS011;8244;50.044;9.006;2023-06-22T12:22:08;9.27;;;5.22;;
16272;SDS011;8244;50.044;9.006;2023-06-22T12:27:09;11.35;;;5.70;;
16272;SDS011;8244;50.044;9.006;2023-06-22T12:32:11;8.63;;;5.40;;
16272;SDS011;8244;50.044;9.006;2023-06-22T12:37:15;11.63;;;5.97;;
16272;SDS011;8244;50.044;9.006;2023-06-22T12:42:16;9.32;;;5.85;;
16272;SDS011;8244;50.044;9.006;2023-06-22T12:47:18;11.70;;;5.68;;
16272;SDS011;8244;50.044;9.006;2023-06-22T12:52:22;11.02;;;5.70;;
16272;SDS011;8244;50.044;9.006;2023-06-22T12:57:24;10.13;;;6.20;;
16272;SDS011;8244;50.044;9.006;2023-06-22T13:02:25;9.60;;;5.53;;
16272;SDS011;8244;50.044;9.006;2023-06-22T13:07:29;10.13;;;5.32;;
16272;SDS011;8244;50.044;9.006;2023-06-22T13:12:31;11.25;;;5.18;;
16272;SDS011;8244;50.044;9.006;2023-06-22T13:17:32;10.90;;;5.50;;
16272;SDS011;8244;50.044;9.006;2023-06-22T13:22:35;9.10;;;5.32;;
16272;SDS011;8244;50.044;9.006;2023-06-22T13:27:40;13.98;;;5.80;;
16272;SDS011;8244;50.044;9.006;2023-06-22T13:32:41;10.90;;;5.32;;
16272;SDS011;8244;50.044;9.006;2023-06-22T13:37:44;11.30;;;5.10;;
16272;SDS011;8244;50.044;9.006;2023-06-22T13:42:46;12.00;;;4.97;;
16272;SDS011;8244;50.044;9.006;2023-06-22T13:47:48;9.70;;;5.00;;
16272;SDS011;8244;50.044;9.006;2023-06-22T13:52:51;10.00;;;4.95;;
16272;SDS011;8244;50.044;9.006;2023-06-22T13:57:53;11.30;;;4.63;;
16272;SDS011;8244;50.044;9.006;2023-06-22T14:03:00;11.98;;;4.60;;
16272;SDS011;8244;50.044;9.006;2023-06-22T14:08:03;10.52;;;4.82;;
16272;SDS011;8244;50.044;9.006;2023-06-22T14:13:05;8.57;;;4.60;;
16272;SDS011;8244;50.044;9.006;2023-06-22T14:18:07;11.85;;;4.47;;
16272;SDS011;8244;50.044;9.006;2023-06-22T14:23:10;8.25;;;4.53;;
16272;SDS011;8244;50.044;9.006;2023-06-22T14:28:11;8.00;;;4.60;;
16272;SDS011;8244;50.044;9.006;2023-06-22T14:33:13;9.45;;;4.60;;
16272;SDS011;8244;50.044;9.006;2023-06-22T14:38:16;11.70;;;4.85;;
16272;SDS011;8244;50.044;9.006;2023-06-22T14:43:18;15.90;;;4.82;;
16272;SDS011;8244;50.044;9.006;2023-06-22T14:48:19;11.90;;;4.60;;
16272;SDS011;8244;50.044;9.006;2023-06-22T14:53:22;9.85;;;4.65;;
16272;SDS011;8244;50.044;9.006;2023-06-22T14:58:24;9.38;;;4.70;;
16272;SDS011;8244;50.044;9.006;2023-06-22T15:03:26;13.93;;;4.85;;
16272;SDS011;8244;50.044;9.006;2023-06-22T15:08:30;11.00;;;5.20;;
16272;SDS011;8244;50.044;9.006;2023-06-22T15:13:32;9.25;;;4.75;;
16272;SDS011;8244;50.044;9.006;2023-06-22T15:18:35;12.02;;;4.35;;
16272;SDS011;8244;50.044;9.006;2023-06-22T15:23:39;11.20;;;4.50;;
16272;SDS011;8244;50.044;9.006;2023-06-22T15:28:40;10.18;;;4.95;;
16272;SDS011;8244;50.044;9.006;2023-06-22T15:33:43;8.63;;;4.70;;
16272;SDS011;8244;50.044;9.006;2023-06-22T15:38:46;10.52;;;4.38;;
16272;SDS011;8244;50.044;9.006;2023-06-22T15:43:47;13.45;;;4.90;;
16272;SDS011;8244;50.044;9.006;2023-06-22T15:48:49;15.55;;;4.47;;
16272;SDS011;8244;50.044;9.006;2023-06-22T15:53:52;9.63;;;4.72;;
16272;SDS011;8244;50.044;9.006;2023-06-22T15:58:54;11.65;;;4.40;;
16272;SDS011;8244;50.044;9.006;2023-06-22T16:03:56;10.93;;;4.50;;
16272;SDS011;8244;50.044;9.006;2023-06-22T16:08:59;12.43;;;5.22;;
16272;SDS011;8244;50.044;9.006;2023-06-22T16:14:01;10.27;;;4.50;;
16272;SDS011;8244;50.044;9.006;2023-06-22T16:19:03;13.98;;;4.70;;
16272;SDS011;8244;50.044;9.006;2023-06-22T16:24:06;9.80;;;4.53;;
16272;SDS011;8244;50.044;9.006;2023-06-22T16:29:08;11.50;;;4.68;;
16272;SDS011;8244;50.044;9.006;2023-06-22T16:34:11;9.82;;;4.28;;
16272;SDS011;8244;50.044;9.006;2023-06-22T16:39:14;16.10;;;4.95;;
16272;SDS011;8244;50.044;9.006;2023-06-22T16:44:15;12.18;;;4.75;;
16272;SDS011;8244;50.044;9.006;2023-06-22T16:49:17;12.00;;;4.65;;
16272;SDS011;8244;50.044;9.006;2023-06-22T16:54:20;9.10;;;3.85;;
16272;SDS011;8244;50.044;9.006;2023-06-22T16:59:22;11.95;;;3.70;;
16272;SDS011;8244;50.044;9.006;2023-06-22T17:04:25;12.48;;;3.80;;
16272;SDS011;8244;50.044;9.006;2023-06-22T17:09:32;9.82;;;3.40;;
16272;SDS011;8244;50.044;9.006;2023-06-22T17:14:34;11.75;;;3.72;;
16272;SDS011;8244;50.044;9.006;2023-06-22T17:19:39;11.40;;;3.55;;
16272;SDS011;8244;50.044;9.006;2023-06-22T17:24:42;12.65;;;3.90;;
16272;SDS011;8244;50.044;9.006;2023-06-22T17:29:45;12.50;;;3.63;;
16272;SDS011;8244;50.044;9.006;2023-06-22T17:34:46;9.60;;;3.75;;
16272;SDS011;8244;50.044;9.006;2023-06-22T17:39:55;12.27;;;4.15;;
16272;SDS011;8244;50.044;9.006;2023-06-22T17:45:00;15.48;;;4.38;;
16272;SDS011;8244;50.044;9.006;2023-06-22T17:50:03;11.20;;;4.15;;
16272;SDS011;8244;50.044;9.006;2023-06-22T17:55:11;12.15;;;4.45;;
16272;SDS011;8244;50.044;9.006;2023-06-22T18:00:13;10.82;;;4.40;;
16272;SDS011;8244;50.044;9.006;2023-06-22T18:05:15;11.15;;;3.88;;
16272;SDS011;8244;50.044;9.006;2023-06-22T18:10:19;9.27;;;3.80;;
16272;SDS011;8244;50.044;9.006;2023-06-22T18:15:21;11.35;;;3.80;;
16272;SDS011;8244;50.044;9.006;2023-06-22T18:20:24;8.63;;;3.60;;
16272;SDS011;8244;50.044;9.006;2023-06-22T18:25:29;9.18;;;3.80;;
16272;SDS011;8244;50.044;9.006;2023-06-22T18:30:33;9.52;;;3.70;;
16272;SDS011;8244;50.044;9.006;2023-06-22T18:35:36;9.48;;;3.22;;
16272;SDS011;8244;50.044;9.006;2023-06-22T18:40:39;8.35;;;3.72;;
16272;SDS011;8244;50.044;9.006;2023-06-22T18:45:49;9.55;;;3.80;;
16272;SDS011;8244;50.044;9.006;2023-06-22T18:50:52;8.57;;;3.20;;
16272;SDS011;8244;50.044;9.006;2023-06-22T19:01:16;10.15;;;3.70;;
16272;SDS011;8244;50.044;9.006;2023-06-22T19:17:21;10.10;;;3.67;;
16272;SDS011;8244;50.044;9.006;2023-06-22T19:22:23;17.08;;;4.53;;
16272;SDS011;8244;50.044;9.006;2023-06-22T19:27:45;9.93;;;3.78;;
16272;SDS011;8244;50.044;9.006;2023-06-22T19:32:48;8.82;;;3.53;;
16272;SDS011;8244;50.044;9.006;2023-06-22T19:37:50;10.65;;;3.92;;
16272;SDS011;8244;50.044;9.006;2023-06-22T19:42:53;9.02;;;3.72;;
16272;SDS011;8244;50.044;9.006;2023-06-22T19:47:56;10.25;;;3.63;;
16272;SDS011;8244;50.044;9.006;2023-06-22T19:52:58;6.47;;;3.35;;
16272;SDS011;8244;50.044;9.006;2023-06-22T19:58:01;12.13;;;3.47;;
16272;SDS011;8244;50.044;9.006;2023-06-22T20:03:06;9.82;;;3.50;;
16272;SDS011;8244;50.044;9.006;2023-06-22T20:08:12;7.13;;;3.13;;
16272;SDS011;8244;50.044;9.006;2023-06-22T20:13:16;10.10;;;3.30;;
16272;SDS011;8244;50.044;9.006;2023-06-22T20:18:21;9.20;;;3.30;;
16272;SDS011;8244;50.044;9.006;2023-06-22T20:23:23;9.00;;;3.03;;
16272;SDS011;8244;50.044;9.006;2023-06-22T20:28:26;7.57;;;3.17;;
16272;SDS011;8244;50.044;9.006;2023-06-22T20:33:28;10.05;;;2.50;;
16272;SDS011;8244;50.044;9.006;2023-06-22T20:38:30;8.43;;;2.88;;
16272;SDS011;8244;50.044;9.006;2023-06-22T20:43:34;7.90;;;2.30;;
16272;SDS011;8244;50.044;9.006;2023-06-22T20:48:36;4.28;;;2.00;;
16272;SDS011;8244;50.044;9.006;2023-06-22T20:53:38;8.35;;;2.42;;
16272;SDS011;8244;50.044;9.006;2023-06-22T20:58:41;3.63;;;1.80;;
16272;SDS011;8244;50.044;9.006;2023-06-22T21:03:43;5.80;;;1.40;;
16272;SDS011;8244;50.044;9.006;2023-06-22T21:08:44;2.40;;;1.42;;
16272;SDS011;8244;50.044;9.006;2023-06-22T21:13:48;4.43;;;1.30;;
16272;SDS011;8244;50.044;9.006;2023-06-22T21:18:49;3.80;;;1.45;;
16272;SDS011;8244;50.044;9.006;2023-06-22T21:23:52;2.05;;;1.13;;
16272;SDS011;8244;50.044;9.006;2023-06-22T21:28:55;6.28;;;1.10;;
16272;SDS011;8244;50.044;9.006;2023-06-22T21:33:57;1.98;;;1.17;;
16272;SDS011;8244;50.044;9.006;2023-06-22T21:38:59;1.92;;;0.80;;
16272;SDS011;8244;50.044;9.006;2023-06-22T21:44:02;2.28;;;0.80;;
16272;SDS011;8244;50.044;9.006;2023-06-22T21:49:04;1.48;;;0.82;;
16272;SDS011;8244;50.044;9.006;2023-06-22T21:54:06;5.05;;;1.10;;
16272;SDS011;8244;50.044;9.006;2023-06-22T21:59:09;1.20;;;0.70;;
16272;SDS011;8244;50.044;9.006;2023-06-22T22:04:11;3.05;;;0.88;;
16272;SDS011;8244;50.044;9.006;2023-06-22T22:09:15;1.75;;;0.65;;
16272;SDS011;8244;50.044;9.006;2023-06-22T22:14:18;2.50;;;0.90;;
16272;SDS011;8244;50.044;9.006;2023-06-22T22:19:19;1.88;;;0.80;;
16272;SDS011;8244;50.044;9.006;2023-06-22T22:24:21;3.65;;;0.70;;
16272;SDS011;8244;50.044;9.006;2023-06-22T22:29:24;0.50;;;0.50;;
16272;SDS011;8244;50.044;9.006;2023-06-22T22:34:28;3.45;;;0.70;;
16272;SDS011;8244;50.044;9.006;2023-06-22T22:39:30;2.70;;;0.60;;
16272;SDS011;8244;50.044;9.006;2023-06-22T22:44:35;2.65;;;0.63;;
16272;SDS011;8244;50.044;9.006;2023-06-22T22:49:37;1.90;;;0.70;;
16272;SDS011;8244;50.044;9.006;2023-06-22T22:54:39;1.30;;;0.70;;
16272;SDS011;8244;50.044;9.006;2023-06-22T22:59:44;0.60;;;0.50;;
16272;SDS011;8244;50.044;9.006;2023-06-22T23:04:53;2.85;;;0.80;;
16272;SDS011;8244;50.044;9.006;2023-06-22T23:09:55;1.30;;;0.80;;
16272;SDS011;8244;50.044;9.006;2023-06-22T23:14:58;0.93;;;0.93;;
16272;SDS011;8244;50.044;9.006;2023-06-22T23:20:00;1.98;;;0.90;;
16272;SDS011;8244;50.044;9.006;2023-06-22T23:25:04;0.90;;;0.90;;
16272;SDS011;8244;50.044;9.006;2023-06-22T23:30:10;0.75;;;0.75;;
16272;SDS011;8244;50.044;9.006;2023-06-22T23:35:12;1.30;;;1.20;;
16272;SDS011;8244;50.044;9.006;2023-06-22T23:40:14;3.38;;;1.35;;
16272;SDS011;8244;50.044;9.006;2023-06-22T23:45:19;3.55;;;1.95;;
16272;SDS011;8244;50.044;9.006;2023-06-22T23:50:21;2.28;;;1.92;;
16272;SDS011;8244;50.044;9.006;2023-06-22T23:55:23;4.05;;;2.10;;
